Time;durP1;ratioP1;P1;durP2;ratioP2;P2;SDS_P1;SDS_P2;PMS_P1;PMS_P2;Temp;Humidity;BMP_temperature;BMP_pressure;BME280_temperature;BME280_humidity;BME280_pressure;Samples;Min_cycle;Max_cycle;Signal;HPM_P1;HPM_P2
2024/03/09 00:00:24;;;;;;;53.33;29.90;;;2.00;99.90;;;;;;6241676;22;20543;-78
2024/03/09 00:02:51;;;;;;;48.88;25.35;;;2.00;99.90;;;;;;6242573;22;20020;-78
2024/03/09 00:05:20;;;;;;;53.95;28.45;;;2.00;99.90;;;;;;6215210;22;20456;-78
2024/03/09 00:07:46;;;;;;;54.40;27.88;;;2.00;99.90;;;;;;6242214;22;20015;-78
2024/03/09 00:10:12;;;;;;;50.92;27.52;;;1.90;99.90;;;;;;6241916;22;20022;-78
2024/03/09 00:12:38;;;;;;;56.22;27.35;;;1.90;99.90;;;;;;6242221;22;20012;-78
2024/03/09 00:15:06;;;;;;;52.60;28.20;;;1.90;99.90;;;;;;6191699;23;20353;-78
2024/03/09 00:17:31;;;;;;;54.13;27.90;;;1.90;99.90;;;;;;6185779;23;20350;-78
2024/03/09 00:20:00;;;;;;;59.10;29.65;;;1.80;99.90;;;;;;6233972;22;20019;-78
2024/03/09 00:22:29;;;;;;;55.20;28.40;;;1.90;99.90;;;;;;6216509;22;20479;-78
2024/03/09 00:24:55;;;;;;;52.53;27.33;;;2.00;99.90;;;;;;6240948;22;20457;-78
2024/03/09 00:27:29;;;;;;;52.70;26.27;;;2.00;99.90;;;;;;6241226;22;20007;-78
2024/03/09 00:29:55;;;;;;;50.70;27.13;;;2.10;99.90;;;;;;6216426;22;20065;-78
2024/03/09 00:32:21;;;;;;;55.95;28.33;;;2.00;99.90;;;;;;6215911;22;20324;-78
2024/03/09 00:34:47;;;;;;;52.40;27.70;;;1.90;99.90;;;;;;6241563;22;20022;-78
2024/03/09 00:37:13;;;;;;;59.33;29.90;;;1.90;99.90;;;;;;6267148;22;20011;-78
2024/03/09 00:39:39;;;;;;;53.83;28.35;;;1.80;99.90;;;;;;6241260;22;20476;-78
2024/03/09 00:42:08;;;;;;;53.72;28.75;;;1.90;99.90;;;;;;6242095;22;20011;-78
2024/03/09 00:44:35;;;;;;;55.03;29.23;;;1.80;99.90;;;;;;6241735;22;20130;-78
2024/03/09 00:47:01;;;;;;;52.55;25.45;;;1.90;99.90;;;;;;6192193;22;20022;-78
2024/03/09 00:49:30;;;;;;;50.67;25.88;;;1.90;99.90;;;;;;6216027;22;20011;-78
2024/03/09 00:51:58;;;;;;;56.70;29.73;;;1.90;99.90;;;;;;6217089;22;20046;-78
2024/03/09 00:54:25;;;;;;;52.72;27.45;;;1.90;99.90;;;;;;6215565;22;20015;-78
2024/03/09 00:56:54;;;;;;;60.80;28.65;;;1.80;99.90;;;;;;6217098;22;20011;-78
2024/03/09 00:59:19;;;;;;;57.22;28.58;;;1.80;99.90;;;;;;6216928;22;20069;-78
2024/03/09 01:01:47;;;;;;;57.25;29.25;;;1.70;99.90;;;;;;6216228;22;20038;-78
2024/03/09 01:04:13;;;;;;;50.05;26.70;;;1.80;99.90;;;;;;6267677;22;20015;-78
2024/03/09 01:06:39;;;;;;;53.58;27.25;;;1.80;99.90;;;;;;6215867;22;20016;-78
2024/03/09 01:09:04;;;;;;;50.78;27.90;;;1.60;99.90;;;;;;6192032;22;20026;-78
2024/03/09 01:11:30;;;;;;;52.75;28.77;;;1.50;99.90;;;;;;6215749;22;20498;-78
2024/03/09 01:13:56;;;;;;;59.50;28.85;;;1.70;99.90;;;;;;6241043;22;20051;-78
2024/03/09 01:16:22;;;;;;;54.42;26.83;;;1.80;99.90;;;;;;6215656;22;20433;-78
2024/03/09 01:18:49;;;;;;;54.83;28.05;;;1.70;99.90;;;;;;6215884;22;20584;-78
2024/03/09 01:21:14;;;;;;;57.08;29.60;;;1.40;99.90;;;;;;6216024;22;20008;-78
2024/03/09 01:23:41;;;;;;;59.17;28.90;;;1.40;99.90;;;;;;6241041;22;20044;-78
2024/03/09 01:26:09;;;;;;;60.92;29.88;;;1.50;99.90;;;;;;6191974;22;20004;-78
2024/03/09 01:28:36;;;;;;;53.13;28.23;;;1.50;99.90;;;;;;6217349;23;20441;-78
2024/03/09 01:31:02;;;;;;;56.40;28.40;;;1.40;99.90;;;;;;6210588;23;20004;-78
2024/03/09 01:33:28;;;;;;;54.38;27.88;;;1.30;99.90;;;;;;6198181;23;20035;-78
2024/03/09 01:35:54;;;;;;;58.25;29.70;;;1.20;99.90;;;;;;6217027;23;20012;-78
2024/03/09 01:38:22;;;;;;;56.20;28.65;;;1.20;99.90;;;;;;6185875;23;20007;-78
2024/03/09 01:40:47;;;;;;;60.95;28.13;;;1.20;99.90;;;;;;6237394;23;20693;-78
2024/03/09 01:43:16;;;;;;;59.05;29.15;;;1.20;99.90;;;;;;6181496;23;20075;-78
2024/03/09 01:45:45;;;;;;;57.45;29.58;;;1.30;99.90;;;;;;6187664;23;20446;-78
2024/03/09 01:48:14;;;;;;;57.50;29.42;;;1.40;99.90;;;;;;6192102;23;20011;-78
2024/03/09 01:50:40;;;;;;;53.63;28.52;;;1.40;99.90;;;;;;6186924;23;20016;-78
2024/03/09 01:53:07;;;;;;;58.75;28.45;;;1.40;99.90;;;;;;6186433;23;20016;-78
2024/03/09 01:55:33;;;;;;;56.47;29.17;;;1.30;99.90;;;;;;6215135;22;20354;-77
2024/03/09 01:57:58;;;;;;;58.17;28.95;;;1.40;99.90;;;;;;6215635;22;20091;-78
2024/03/09 02:00:24;;;;;;;56.83;29.33;;;1.50;99.90;;;;;;6215328;22;20387;-78
2024/03/09 02:02:49;;;;;;;55.60;26.77;;;1.40;99.90;;;;;;6215591;22;20024;-78
2024/03/09 02:05:16;;;;;;;62.60;29.48;;;1.40;99.90;;;;;;6240391;22;20356;-78
2024/03/09 02:07:44;;;;;;;51.17;25.05;;;1.40;99.90;;;;;;6241706;22;20023;-78
2024/03/09 02:10:11;;;;;;;63.15;27.63;;;1.40;99.90;;;;;;6190332;23;20012;-78
2024/03/09 02:12:37;;;;;;;59.42;29.75;;;1.40;99.90;;;;;;6212484;23;20016;-78
2024/03/09 02:15:05;;;;;;;60.95;27.50;;;1.10;99.90;;;;;;6234587;22;20018;-78
2024/03/09 02:17:33;;;;;;;52.65;28.70;;;1.00;99.90;;;;;;6241558;22;20127;-78
2024/03/09 02:19:59;;;;;;;54.25;25.92;;;1.00;99.90;;;;;;6240996;22;20019;-78
2024/03/09 02:22:25;;;;;;;64.20;29.40;;;1.00;99.90;;;;;;6239659;22;20012;-78
2024/03/09 02:24:54;;;;;;;52.95;26.77;;;1.00;99.90;;;;;;6239806;22;20023;-78
2024/03/09 02:27:20;;;;;;;60.00;29.02;;;1.10;99.90;;;;;;6240980;22;20031;-78
2024/03/09 02:29:46;;;;;;;59.83;29.67;;;1.00;99.90;;;;;;6240171;22;20016;-78
2024/03/09 02:32:11;;;;;;;67.57;30.17;;;1.00;99.90;;;;;;6214444;22;20079;-78
2024/03/09 02:34:37;;;;;;;60.17;29.95;;;1.00;99.90;;;;;;6240804;22;20012;-78
2024/03/09 02:37:03;;;;;;;59.75;28.73;;;0.90;99.90;;;;;;6214922;22;20016;-78
2024/03/09 02:39:29;;;;;;;60.45;29.98;;;1.00;99.90;;;;;;6239648;22;20019;-78
2024/03/09 02:41:56;;;;;;;56.08;28.25;;;1.00;99.90;;;;;;6242194;22;20012;-78
2024/03/09 02:44:22;;;;;;;53.70;27.52;;;1.00;99.90;;;;;;6241514;22;20380;-77
2024/03/09 02:46:47;;;;;;;54.90;28.38;;;1.00;99.90;;;;;;6216769;22;20026;-78
2024/03/09 02:49:13;;;;;;;61.58;28.67;;;1.10;99.90;;;;;;6242452;22;20011;-78
2024/03/09 02:51:38;;;;;;;59.28;29.55;;;0.90;99.90;;;;;;6242551;22;20043;-78
2024/03/09 02:54:04;;;;;;;57.08;27.90;;;0.90;99.90;;;;;;6241884;22;20019;-78
2024/03/09 02:56:30;;;;;;;59.58;29.08;;;0.90;99.90;;;;;;6241533;22;20436;-77
2024/03/09 02:58:55;;;;;;;58.03;28.20;;;0.90;99.90;;;;;;6241820;22;20353;-78
2024/03/09 03:01:26;;;;;;;67.20;30.15;;;0.90;99.90;;;;;;6241122;22;20008;-78
2024/03/09 03:04:02;;;;;;;58.53;29.25;;;1.00;99.90;;;;;;6215126;22;20345;-78
2024/03/09 03:06:28;;;;;;;58.60;29.52;;;0.90;99.90;;;;;;6243856;22;20010;-78
2024/03/09 03:08:57;;;;;;;66.65;30.35;;;0.90;99.90;;;;;;6216290;22;20012;-78
2024/03/09 03:11:22;;;;;;;63.42;29.65;;;0.90;99.90;;;;;;6241790;22;20449;-78
2024/03/09 03:13:49;;;;;;;60.33;29.23;;;0.80;99.90;;;;;;6189260;23;20022;-78
2024/03/09 03:16:28;;;;;;;60.33;29.52;;;0.90;99.90;;;;;;6212909;23;20012;-78
2024/03/09 03:18:57;;;;;;;63.80;29.75;;;0.90;99.90;;;;;;6241475;22;20051;-78
2024/03/09 03:21:23;;;;;;;68.07;32.33;;;0.90;99.90;;;;;;6241819;22;20430;-78
2024/03/09 03:23:49;;;;;;;58.70;28.77;;;0.90;99.90;;;;;;6240936;22;20007;-78
2024/03/09 03:26:15;;;;;;;57.22;28.23;;;0.80;99.90;;;;;;6241693;22;20089;-78
2024/03/09 03:28:44;;;;;;;52.25;27.25;;;0.80;99.90;;;;;;6242061;22;20757;-78
2024/03/09 03:31:10;;;;;;;58.65;29.13;;;0.80;99.90;;;;;;6241448;22;20023;-78
2024/03/09 03:33:41;;;;;;;51.53;25.98;;;0.90;99.90;;;;;;6241093;22;20008;-77
2024/03/09 03:36:07;;;;;;;58.28;28.40;;;0.90;99.90;;;;;;6186977;23;20008;-78
2024/03/09 03:38:34;;;;;;;60.58;29.15;;;1.00;99.90;;;;;;6216994;23;20026;-77
2024/03/09 03:41:01;;;;;;;62.38;28.17;;;0.90;99.90;;;;;;6241383;22;20016;-78
2024/03/09 03:43:26;;;;;;;65.72;30.23;;;1.00;99.90;;;;;;6241463;22;20007;-78
2024/03/09 03:45:52;;;;;;;54.42;27.70;;;1.00;99.90;;;;;;6215132;22;20014;-78
2024/03/09 03:48:19;;;;;;;53.53;26.90;;;1.00;99.90;;;;;;6189537;23;20079;-78
2024/03/09 03:50:44;;;;;;;55.40;28.42;;;0.90;99.90;;;;;;6211730;23;20011;-78
2024/03/09 03:53:10;;;;;;;57.60;28.85;;;1.00;99.90;;;;;;6235938;22;20007;-78
2024/03/09 03:55:37;;;;;;;53.97;27.00;;;0.90;99.90;;;;;;6241059;22;20007;-78
2024/03/09 03:58:04;;;;;;;56.55;28.50;;;1.00;99.90;;;;;;6241526;22;20160;-78
2024/03/09 04:00:30;;;;;;;60.72;28.75;;;1.10;99.90;;;;;;6240913;22;20341;-78
2024/03/09 04:02:55;;;;;;;57.50;28.83;;;1.10;99.90;;;;;;6268100;22;20012;-78
2024/03/09 04:05:21;;;;;;;59.25;28.90;;;1.10;99.90;;;;;;6241023;22;20083;-78
2024/03/09 04:07:48;;;;;;;57.35;28.48;;;1.10;99.90;;;;;;6241198;22;20020;-78
2024/03/09 04:10:14;;;;;;;53.20;26.55;;;1.10;99.90;;;;;;6240888;22;20023;-78
2024/03/09 04:12:43;;;;;;;57.25;26.83;;;1.10;99.90;;;;;;6241478;22;20019;-78
2024/03/09 04:15:09;;;;;;;59.20;27.27;;;1.10;99.90;;;;;;6241818;22;20495;-78
2024/03/09 04:17:35;;;;;;;54.67;26.13;;;1.10;99.90;;;;;;6241500;22;20012;-77
2024/03/09 04:20:04;;;;;;;49.95;25.75;;;0.90;99.90;;;;;;6240829;22;20090;-78
2024/03/09 04:22:31;;;;;;;51.63;26.25;;;1.00;99.90;;;;;;6267879;22;20018;-78
2024/03/09 04:24:56;;;;;;;55.88;26.85;;;1.00;99.90;;;;;;6241006;22;20099;-78
2024/03/09 04:27:22;;;;;;;53.58;28.10;;;0.90;99.90;;;;;;6241064;22;20449;-78
2024/03/09 04:29:48;;;;;;;54.22;25.92;;;1.00;99.90;;;;;;6241116;22;20020;-79
2024/03/09 04:32:14;;;;;;;51.00;26.00;;;1.00;99.90;;;;;;6241845;22;20869;-77
2024/03/09 04:34:40;;;;;;;54.05;26.73;;;0.90;99.90;;;;;;6268197;22;20012;-78
2024/03/09 04:37:08;;;;;;;46.83;24.85;;;0.90;99.90;;;;;;6240782;22;20465;-78
2024/03/09 04:39:38;;;;;;;50.00;24.48;;;1.00;99.90;;;;;;6241776;22;20600;-78
2024/03/09 04:42:04;;;;;;;49.85;24.50;;;1.00;99.90;;;;;;6242548;22;20449;-78
2024/03/09 04:44:31;;;;;;;51.08;25.23;;;0.90;99.90;;;;;;6267261;22;20019;-78
2024/03/09 04:46:57;;;;;;;48.42;23.65;;;1.00;99.90;;;;;;6240837;22;20453;-78
2024/03/09 04:49:22;;;;;;;48.88;23.52;;;1.00;99.90;;;;;;6216011;22;20045;-78
2024/03/09 04:51:48;;;;;;;45.45;22.98;;;1.00;99.90;;;;;;6215326;22;20019;-78
2024/03/09 04:54:13;;;;;;;46.50;24.48;;;0.90;99.90;;;;;;6190555;23;20058;-78
2024/03/09 04:56:39;;;;;;;47.13;23.42;;;1.10;99.90;;;;;;6216388;23;20012;-78
2024/03/09 04:59:04;;;;;;;49.35;23.92;;;1.20;99.90;;;;;;6210352;23;20377;-78
2024/03/09 05:01:32;;;;;;;49.15;24.33;;;1.20;99.90;;;;;;6183652;23;20016;-78
2024/03/09 05:03:58;;;;;;;43.70;23.25;;;1.20;99.90;;;;;;6214286;23;20012;-78
2024/03/09 05:06:23;;;;;;;50.28;24.48;;;1.20;99.90;;;;;;6213001;22;20018;-78
2024/03/09 05:08:49;;;;;;;45.75;24.23;;;1.10;99.90;;;;;;6215335;22;20506;-78
2024/03/09 05:11:14;;;;;;;42.55;21.98;;;1.00;99.90;;;;;;6241515;22;20004;-78
2024/03/09 05:13:40;;;;;;;49.30;23.60;;;1.10;99.90;;;;;;6240641;22;20034;-78
2024/03/09 05:16:05;;;;;;;55.33;26.13;;;1.10;99.90;;;;;;6215099;22;20007;-78
2024/03/09 05:18:31;;;;;;;45.22;23.70;;;1.10;99.90;;;;;;6187251;23;20091;-78
2024/03/09 05:20:56;;;;;;;48.60;24.92;;;1.10;99.90;;;;;;6185112;23;20011;-78
2024/03/09 05:23:23;;;;;;;47.25;23.15;;;1.00;99.90;;;;;;6185101;23;20008;-78
2024/03/09 05:25:48;;;;;;;39.78;21.52;;;0.90;99.90;;;;;;6229128;22;20008;-78
2024/03/09 05:28:14;;;;;;;48.13;22.42;;;0.80;99.90;;;;;;6241481;22;20012;-78
2024/03/09 05:30:41;;;;;;;48.65;24.85;;;0.90;99.90;;;;;;6239773;22;20007;-78
2024/03/09 05:33:06;;;;;;;46.55;22.65;;;1.00;99.90;;;;;;6215580;22;20008;-78
2024/03/09 05:35:34;;;;;;;49.90;24.92;;;0.90;99.90;;;;;;6240269;22;20075;-78
2024/03/09 05:38:00;;;;;;;45.88;22.45;;;1.00;99.90;;;;;;6239971;22;20087;-78
2024/03/09 05:40:32;;;;;;;41.10;22.23;;;0.90;99.90;;;;;;6187103;23;20621;-78
2024/03/09 05:43:04;;;;;;;46.58;23.58;;;0.90;99.90;;;;;;6213887;23;20087;-78
2024/03/09 05:45:30;;;;;;;45.50;21.60;;;0.90;99.90;;;;;;6214030;22;20058;-78
2024/03/09 05:47:57;;;;;;;41.40;22.23;;;0.90;99.90;;;;;;6239820;22;20126;-78
2024/03/09 05:50:23;;;;;;;40.42;21.05;;;1.00;99.90;;;;;;6211943;22;20510;-78
2024/03/09 05:52:52;;;;;;;40.38;21.27;;;1.00;99.90;;;;;;6188797;23;20683;-78
2024/03/09 05:55:19;;;;;;;45.35;20.70;;;1.00;99.90;;;;;;6211355;23;20032;-78
2024/03/09 05:57:48;;;;;;;44.13;21.90;;;1.10;99.90;;;;;;6235874;22;20011;-78
2024/03/09 06:00:16;;;;;;;37.47;19.48;;;1.00;99.90;;;;;;6240801;22;20453;-78
2024/03/09 06:02:44;;;;;;;48.42;21.23;;;1.10;99.90;;;;;;6197448;22;20087;-77
2024/03/09 06:05:10;;;;;;;40.08;20.58;;;1.10;99.90;;;;;;6185852;23;20008;-78
2024/03/09 06:07:39;;;;;;;43.92;22.30;;;1.10;99.90;;;;;;6215018;23;20143;-78
2024/03/09 06:10:07;;;;;;;47.15;22.75;;;1.10;99.90;;;;;;6239058;22;20408;-78
2024/03/09 06:12:36;;;;;;;43.47;21.95;;;1.10;99.90;;;;;;6187154;23;20022;-78
2024/03/09 06:15:05;;;;;;;38.47;21.00;;;1.10;99.90;;;;;;6214992;23;20457;-78
2024/03/09 06:17:32;;;;;;;41.67;21.17;;;1.10;99.90;;;;;;6215231;22;20027;-78
2024/03/09 06:20:01;;;;;;;38.33;19.75;;;1.10;99.90;;;;;;6242125;22;20015;-78
2024/03/09 06:22:26;;;;;;;41.33;21.23;;;1.20;99.90;;;;;;6242316;22;20065;-78
2024/03/09 06:24:52;;;;;;;43.38;21.52;;;1.30;99.90;;;;;;6242363;22;20087;-78
2024/03/09 06:27:17;;;;;;;38.83;19.95;;;1.30;99.90;;;;;;6242418;22;20011;-78
2024/03/09 06:29:44;;;;;;;43.08;21.48;;;1.40;99.90;;;;;;6242650;22;20012;-77
2024/03/09 06:32:10;;;;;;;45.47;22.90;;;1.40;99.90;;;;;;6242282;22;20442;-78
2024/03/09 06:34:42;;;;;;;41.33;21.88;;;1.40;99.90;;;;;;6241861;22;20030;-78
2024/03/09 06:37:09;;;;;;;44.45;20.88;;;1.50;99.90;;;;;;6243419;22;20016;-79
2024/03/09 06:39:37;;;;;;;38.80;20.13;;;1.50;99.90;;;;;;6217038;22;20035;-78
2024/03/09 06:42:03;;;;;;;42.10;20.40;;;1.50;99.90;;;;;;6242615;22;20038;-78
2024/03/09 06:44:29;;;;;;;38.78;19.67;;;1.60;99.90;;;;;;6241595;22;20062;-78
2024/03/09 06:46:54;;;;;;;40.78;21.85;;;1.70;99.90;;;;;;6216259;22;20384;-78
2024/03/09 06:49:21;;;;;;;39.20;20.30;;;1.80;99.90;;;;;;6241217;22;20016;-78
2024/03/09 06:51:46;;;;;;;39.08;19.23;;;1.90;99.90;;;;;;6216794;22;20019;-78
2024/03/09 06:54:12;;;;;;;36.92;19.20;;;1.90;99.90;;;;;;6210907;23;20016;-78
2024/03/09 06:56:37;;;;;;;40.42;20.92;;;2.00;99.90;;;;;;6228156;22;20531;-78
2024/03/09 06:59:03;;;;;;;34.55;19.35;;;1.90;99.90;;;;;;6241580;22;20035;-78
2024/03/09 07:01:30;;;;;;;41.22;19.73;;;2.00;99.90;;;;;;6242833;22;20031;-78
2024/03/09 07:04:01;;;;;;;42.58;21.10;;;2.10;99.90;;;;;;6241993;22;20019;-78
2024/03/09 07:06:26;;;;;;;38.13;20.67;;;2.20;99.90;;;;;;6242549;22;20384;-79
2024/03/09 07:08:52;;;;;;;36.42;19.85;;;2.30;99.90;;;;;;6268767;22;20016;-79
2024/03/09 07:11:20;;;;;;;39.72;18.95;;;2.40;99.90;;;;;;6242183;22;20003;-78
2024/03/09 07:13:45;;;;;;;42.17;19.83;;;2.50;99.90;;;;;;6242959;22;20078;-77
2024/03/09 07:16:11;;;;;;;36.85;19.25;;;2.60;99.90;;;;;;6226535;22;20089;-78
2024/03/09 07:18:37;;;;;;;39.28;20.70;;;2.70;99.90;;;;;;6215977;22;20114;-78
2024/03/09 07:21:05;;;;;;;38.33;20.08;;;2.70;99.90;;;;;;6188384;23;20008;-78
2024/03/09 07:23:31;;;;;;;40.40;21.33;;;2.70;99.90;;;;;;6215113;23;20480;-78
2024/03/09 07:25:56;;;;;;;48.85;24.42;;;2.70;99.90;;;;;;6236875;22;20087;-78
2024/03/09 07:28:22;;;;;;;36.10;20.58;;;2.80;99.90;;;;;;6211459;22;20953;-78
2024/03/09 07:30:47;;;;;;;43.45;22.52;;;2.80;99.90;;;;;;6242047;22;20019;-78
2024/03/09 07:33:13;;;;;;;43.33;21.35;;;2.90;99.90;;;;;;6217172;23;20092;-78
2024/03/09 07:35:39;;;;;;;45.08;23.30;;;3.10;99.90;;;;;;6227685;22;20031;-78
2024/03/09 07:38:04;;;;;;;44.15;23.67;;;3.20;99.90;;;;;;6216385;22;20004;-78
2024/03/09 07:40:31;;;;;;;46.00;23.33;;;3.30;99.90;;;;;;6215831;22;20020;-79
2024/03/09 07:42:57;;;;;;;42.65;22.23;;;3.40;99.90;;;;;;6241059;22;20055;-78
2024/03/09 07:45:23;;;;;;;40.70;20.92;;;3.50;99.90;;;;;;6215733;22;20003;-78
2024/03/09 07:47:49;;;;;;;43.25;21.13;;;3.60;99.90;;;;;;6241167;22;20008;-77
2024/03/09 07:50:16;;;;;;;37.40;19.60;;;3.70;99.90;;;;;;6269389;22;20016;-78
2024/03/09 07:52:43;;;;;;;40.53;21.90;;;3.90;99.90;;;;;;6215606;22;20054;-78
2024/03/09 07:55:09;;;;;;;36.53;19.33;;;4.00;99.90;;;;;;6240813;22;20016;-79
2024/03/09 07:57:34;;;;;;;41.25;20.00;;;4.20;99.90;;;;;;6215482;22;20019;-78
2024/03/09 08:00:00;;;;;;;34.60;18.55;;;4.30;99.90;;;;;;6215076;22;20020;-78
2024/03/09 08:02:25;;;;;;;33.40;18.77;;;4.30;99.90;;;;;;6215627;22;20011;-78
2024/03/09 08:04:51;;;;;;;29.52;17.42;;;4.40;99.90;;;;;;6215264;22;20011;-78
2024/03/09 08:07:17;;;;;;;29.33;16.55;;;4.60;99.90;;;;;;6241941;22;20082;-78
2024/03/09 08:09:43;;;;;;;26.75;13.70;;;4.60;99.90;;;;;;6239639;22;20018;-79
2024/03/09 08:12:09;;;;;;;27.80;15.00;;;4.70;99.90;;;;;;6215204;22;20403;-78
2024/03/09 08:14:35;;;;;;;34.50;18.73;;;4.80;99.90;;;;;;6240621;22;20016;-79
2024/03/09 08:17:01;;;;;;;35.70;18.58;;;4.90;99.90;;;;;;6215640;22;20016;-78
2024/03/09 08:19:26;;;;;;;28.50;15.45;;;5.00;99.90;;;;;;6186607;23;20016;-79
2024/03/09 08:21:52;;;;;;;31.63;16.05;;;5.10;99.90;;;;;;6236814;23;20019;-79
2024/03/09 08:24:18;;;;;;;29.42;15.73;;;5.20;99.90;;;;;;6217160;23;20019;-79
2024/03/09 08:26:45;;;;;;;35.20;19.10;;;5.30;99.90;;;;;;6241108;22;20471;-80
2024/03/09 08:29:14;;;;;;;34.10;16.80;;;5.50;99.90;;;;;;6267077;22;20354;-81
2024/03/09 08:31:40;;;;;;;30.27;16.65;;;5.60;99.90;;;;;;6240754;22;20103;-79
2024/03/09 08:34:06;;;;;;;25.40;14.30;;;5.70;99.90;;;;;;6214109;22;20043;-80
2024/03/09 08:36:34;;;;;;;21.80;12.70;;;6.00;99.90;;;;;;6239292;22;20007;-80
2024/03/09 08:39:00;;;;;;;26.08;14.10;;;6.30;99.90;;;;;;6240874;22;20436;-80
2024/03/09 08:41:27;;;;;;;26.65;15.23;;;6.60;99.90;;;;;;6240468;22;20008;-80
2024/03/09 08:43:53;;;;;;;26.48;16.60;;;6.50;99.90;;;;;;6215108;22;20027;-78
2024/03/09 08:46:19;;;;;;;30.45;15.90;;;6.50;99.90;;;;;;6240816;22;20378;-81
2024/03/09 08:48:44;;;;;;;26.77;15.68;;;6.70;99.90;;;;;;6239633;22;20039;-80
2024/03/09 08:51:10;;;;;;;31.25;17.67;;;6.80;99.90;;;;;;6240127;22;20441;-81
2024/03/09 08:53:35;;;;;;;24.60;14.27;;;6.70;99.90;;;;;;6214813;22;20082;-80
2024/03/09 08:56:03;;;;;;;31.02;16.63;;;6.90;99.90;;;;;;6214626;22;20019;-81
2024/03/09 08:58:30;;;;;;;22.05;12.13;;;7.20;99.90;;;;;;6239868;22;20008;-81
2024/03/09 09:00:56;;;;;;;29.38;14.55;;;7.40;99.90;;;;;;6240395;22;20467;-81
2024/03/09 09:03:23;;;;;;;21.83;14.23;;;7.60;99.90;;;;;;6240257;22;20015;-79
2024/03/09 09:05:49;;;;;;;22.48;12.73;;;7.90;99.90;;;;;;6240523;22;20007;-81
2024/03/09 09:08:24;;;;;;;23.95;14.23;;;8.00;99.90;;;;;;6238738;22;20495;-80
2024/03/09 09:10:50;;;;;;;23.30;14.43;;;7.80;99.90;;;;;;6241561;22;20018;-81
2024/03/09 09:13:17;;;;;;;21.75;13.27;;;8.00;99.90;;;;;;6190894;23;20059;-81
2024/03/09 09:15:46;;;;;;;19.85;12.32;;;8.20;99.90;;;;;;6221884;23;20043;-82
2024/03/09 09:18:15;;;;;;;23.17;13.43;;;8.40;99.90;;;;;;6185406;23;20087;-80
2024/03/09 09:20:41;;;;;;;22.10;13.18;;;8.60;99.90;;;;;;6209986;23;20030;-80
2024/03/09 09:23:10;;;;;;;23.77;13.93;;;8.70;99.90;;;;;;6206832;23;20008;-79
2024/03/09 09:25:36;;;;;;;23.83;12.90;;;8.80;99.90;;;;;;6188953;23;20051;-80
2024/03/09 09:28:02;;;;;;;23.85;13.00;;;9.00;99.90;;;;;;6211115;22;20020;-81
2024/03/09 09:30:27;;;;;;;22.05;12.52;;;9.20;99.90;;;;;;6214676;22;20453;-81
2024/03/09 09:32:53;;;;;;;24.52;13.57;;;9.20;99.90;;;;;;6189276;23;20083;-81
2024/03/09 09:35:20;;;;;;;22.45;13.18;;;9.30;99.90;;;;;;6185265;23;20083;-81
2024/03/09 09:37:46;;;;;;;22.95;13.70;;;9.40;99.90;;;;;;6209027;22;20016;-82
2024/03/09 09:40:13;;;;;;;24.52;13.18;;;9.30;99.90;;;;;;6240572;22;20435;-82
2024/03/09 09:42:38;;;;;;;24.25;13.32;;;9.30;99.90;;;;;;6241276;22;20513;-82
2024/03/09 09:45:05;;;;;;;19.40;11.30;;;8.80;99.90;;;;;;6240610;22;20018;-81
2024/03/09 09:47:30;;;;;;;18.92;11.25;;;9.70;99.90;;;;;;6240444;22;20023;-79
2024/03/09 09:49:56;;;;;;;14.02;8.93;;;10.30;99.90;;;;;;6214920;22;20027;-83
2024/03/09 09:52:23;;;;;;;16.88;9.85;;;10.70;99.90;;;;;;6241893;22;20099;-82
2024/03/09 09:54:50;;;;;;;18.20;10.38;;;11.40;99.90;;;;;;6243211;22;20023;-83
2024/03/09 09:57:17;;;;;;;16.27;9.63;;;11.40;99.90;;;;;;6177511;22;20018;-81
2024/03/09 09:59:46;;;;;;;17.90;11.82;;;11.70;99.90;;;;;;6162599;23;20026;-83
2024/03/09 10:02:12;;;;;;;22.23;12.05;;;11.40;99.90;;;;;;6191643;23;22308;-82
2024/03/09 10:04:40;;;;;;;19.17;11.85;;;11.20;99.90;;;;;;6211256;23;20028;-83
2024/03/09 10:07:10;;;;;;;18.30;10.45;;;11.20;99.90;;;;;;6187458;23;20008;-87
2024/03/09 10:09:36;;;;;;;16.45;10.52;;;11.30;99.90;;;;;;6212073;23;20707;-82
2024/03/09 10:12:02;;;;;;;17.73;11.57;;;11.80;99.90;;;;;;6215129;23;20011;-85
2024/03/09 10:14:32;;;;;;;19.65;11.55;;;11.30;99.90;;;;;;6212983;22;20099;-84
2024/03/09 10:17:09;;;;;;;17.55;10.93;;;11.30;99.90;;;;;;6221305;22;20014;-88
2024/03/09 10:19:35;;;;;;;16.08;9.85;;;11.20;99.90;;;;;;6217901;22;20026;-83
2024/03/09 10:22:00;;;;;;;19.27;10.20;;;12.30;99.90;;;;;;6243051;22;20015;-84
2024/03/09 10:24:26;;;;;;;15.25;10.25;;;12.50;99.90;;;;;;6191800;23;20454;-83
2024/03/09 10:26:54;;;;;;;16.10;9.88;;;12.90;99.90;;;;;;6217858;23;20008;-86
2024/03/09 10:29:21;;;;;;;14.48;9.35;;;13.00;99.90;;;;;;6197766;22;20889;-85
2024/03/09 10:31:50;;;;;;;13.13;9.52;;;13.30;99.90;;;;;;6218851;22;20032;-79
2024/03/09 10:34:16;;;;;;;13.07;8.27;;;12.70;99.90;;;;;;6215582;22;20527;-80
2024/03/09 10:36:41;;;;;;;14.18;8.20;;;13.80;99.90;;;;;;6215415;22;20023;-80
2024/03/09 10:39:07;;;;;;;12.32;7.88;;;14.30;99.90;;;;;;6217268;22;20012;-79
2024/03/09 10:41:32;;;;;;;15.25;9.40;;;14.20;99.90;;;;;;6216246;22;20008;-79
2024/03/09 10:43:58;;;;;;;14.75;9.75;;;13.20;99.90;;;;;;6243027;22;20015;-79
2024/03/09 10:46:25;;;;;;;12.75;8.88;;;12.50;99.90;;;;;;6217165;22;19996;-79
2024/03/09 10:48:53;;;;;;;15.07;8.90;;;13.10;99.90;;;;;;6243453;22;20000;-79
2024/03/09 10:51:25;;;;;;;14.32;8.90;;;13.60;99.90;;;;;;6216056;22;20024;-79
2024/03/09 10:54:17;;;;;;;15.13;9.38;;;14.00;99.90;;;;;;6242313;22;20485;-79
2024/03/09 10:56:46;;;;;;;11.63;8.27;;;13.70;99.90;;;;;;6213256;23;20531;-79
2024/03/09 10:59:13;;;;;;;14.70;9.93;;;14.30;99.90;;;;;;6208586;22;20023;-79
2024/03/09 11:01:39;;;;;;;13.23;9.38;;;13.60;99.90;;;;;;6216568;22;20007;-79
2024/03/09 11:04:05;;;;;;;13.35;8.70;;;14.30;99.90;;;;;;6216930;22;20010;-79
2024/03/09 11:06:31;;;;;;;9.82;7.07;;;14.70;99.90;;;;;;6242257;22;20094;-78
2024/03/09 11:08:57;;;;;;;10.75;7.55;;;14.90;99.90;;;;;;6215852;22;20027;-79
2024/03/09 11:11:25;;;;;;;11.20;7.47;;;15.20;99.90;;;;;;6242150;22;20003;-79
2024/03/09 11:13:51;;;;;;;10.30;7.05;;;14.90;99.90;;;;;;6216735;22;20008;-79
2024/03/09 11:16:24;;;;;;;10.55;6.63;;;15.20;99.90;;;;;;6191587;22;20027;-78
2024/03/09 11:18:56;;;;;;;9.13;6.95;;;16.50;99.90;;;;;;6242633;22;20008;-78
2024/03/09 11:21:29;;;;;;;9.73;6.78;;;17.00;97.50;;;;;;6193328;23;20042;-78
2024/03/09 11:24:12;;;;;;;12.13;7.93;;;17.30;95.00;;;;;;6186950;22;20003;-78
2024/03/09 11:26:54;;;;;;;11.45;8.02;;;17.00;94.70;;;;;;6192389;22;20011;-78
2024/03/09 11:29:22;;;;;;;12.60;8.50;;;16.10;99.90;;;;;;6190033;22;20444;-78
2024/03/09 11:32:02;;;;;;;13.60;8.05;;;16.20;97.20;;;;;;6212271;22;20341;-78
2024/03/09 11:34:28;;;;;;;13.25;8.35;;;15.80;99.90;;;;;;6212764;22;20014;-78
2024/03/09 11:36:56;;;;;;;12.70;8.18;;;15.20;99.90;;;;;;6189512;22;20007;-78
2024/03/09 11:39:33;;;;;;;12.30;8.27;;;14.90;99.90;;;;;;6238185;22;20012;-78
2024/03/09 11:42:08;;;;;;;8.68;5.90;;;15.80;99.90;;;;;;6213636;22;20011;-78
2024/03/09 11:44:36;;;;;;;12.23;8.27;;;17.10;96.70;;;;;;6238086;22;20007;-78
2024/03/09 11:47:03;;;;;;;17.52;10.63;;;17.20;97.40;;;;;;6213250;22;20024;-78
2024/03/09 11:49:29;;;;;;;9.95;7.45;;;15.00;99.90;;;;;;6212176;22;20027;-78
2024/03/09 11:51:56;;;;;;;13.82;9.40;;;14.90;99.90;;;;;;6185613;22;20038;-78
2024/03/09 11:54:22;;;;;;;11.60;7.07;;;16.00;99.90;;;;;;6163763;22;20046;-78
2024/03/09 11:56:48;;;;;;;10.88;7.65;;;16.50;99.90;;;;;;6181520;23;20008;-78
2024/03/09 11:59:15;;;;;;;11.05;7.45;;;17.40;97.40;;;;;;6210213;23;20016;-77
2024/03/09 12:01:41;;;;;;;10.18;7.13;;;17.80;96.70;;;;;;6204093;23;20687;-78
2024/03/09 12:04:06;;;;;;;11.85;8.35;;;17.80;96.00;;;;;;6207149;23;20062;-77
2024/03/09 12:06:32;;;;;;;10.32;7.55;;;16.60;99.30;;;;;;6206373;23;20454;-77
2024/03/09 12:08:58;;;;;;;8.93;6.55;;;17.40;98.20;;;;;;6208621;23;20000;-77
2024/03/09 12:11:25;;;;;;;9.35;5.63;;;17.90;97.50;;;;;;6183666;23;20006;-78
2024/03/09 12:13:52;;;;;;;8.93;6.10;;;18.30;96.70;;;;;;6207840;23;20004;-77
2024/03/09 12:16:18;;;;;;;9.18;6.38;;;19.20;92.90;;;;;;6204809;23;20008;-77
2024/03/09 12:18:50;;;;;;;8.70;5.28;;;19.20;91.10;;;;;;6204216;23;20598;-77
2024/03/09 12:21:18;;;;;;;9.18;6.15;;;18.80;91.70;;;;;;6211833;23;20383;-78
2024/03/09 12:23:53;;;;;;;9.07;6.40;;;18.30;90.10;;;;;;6185222;23;20016;-78
2024/03/09 12:26:23;;;;;;;7.13;5.15;;;18.30;93.20;;;;;;6184544;23;20012;-80
2024/03/09 12:28:49;;;;;;;8.32;5.70;;;18.40;92.90;;;;;;6182132;23;20596;-78
2024/03/09 12:31:15;;;;;;;11.27;6.70;;;18.30;93.10;;;;;;6202402;22;20073;-78
2024/03/09 12:33:40;;;;;;;10.13;6.13;;;18.30;94.80;;;;;;6211922;22;20016;-78
2024/03/09 12:36:09;;;;;;;9.13;6.43;;;17.80;94.00;;;;;;6235424;22;20011;-78